createdAt,value
2023-01-02T00:05:04.613Z,15.2
2023-01-02T00:11:09.257Z,15.2
2023-01-02T00:16:53.071Z,15.2
2023-01-02T00:22:51.732Z,15.2
2023-01-02T00:29:10.635Z,15.3
2023-01-02T00:35:05.553Z,15.3
2023-01-02T00:41:16.058Z,15.3
2023-01-02T00:47:05.069Z,15.3
2023-01-02T00:52:56.480Z,15.3
2023-01-02T00:58:53.377Z,15.3
2023-01-02T01:04:49.563Z,15.3
2023-01-02T01:11:10.419Z,15.4
2023-01-02T01:16:57.680Z,15.4
2023-01-02T01:22:48.622Z,15.3
2023-01-02T01:29:00.049Z,15.4
2023-01-02T01:34:51.469Z,15.4
2023-01-02T01:40:48.693Z,15.4
2023-01-02T01:46:48.509Z,15.4
2023-01-02T01:52:48.187Z,15.4
2023-01-02T01:58:48.141Z,15.4
2023-01-02T02:04:52.581Z,15.4
2023-01-02T02:10:48.424Z,15.4
2023-01-02T02:16:50.431Z,15.4
2023-01-02T02:22:47.508Z,15.4
2023-01-02T02:28:47.261Z,15.4
2023-01-02T02:34:47.378Z,15.4
2023-01-02T02:40:47.612Z,15.4
2023-01-02T02:46:47.490Z,15.4
2023-01-02T02:52:47.499Z,15.4
2023-01-02T02:58:53.581Z,15.4
2023-01-02T03:04:48.212Z,15.4
2023-01-02T03:10:49.307Z,15.4
2023-01-02T03:16:51.351Z,15.4
2023-01-02T03:22:47.475Z,15.4
2023-01-02T03:28:51.663Z,15.3
2023-01-02T03:34:48.901Z,15.4
2023-01-02T03:40:49.728Z,15.3
2023-01-02T03:46:50.610Z,15.3
2023-01-02T03:52:48.000Z,15.3
2023-01-02T03:58:47.531Z,15.3
2023-01-02T04:04:50.850Z,15.3
2023-01-02T04:10:51.860Z,15.3
2023-01-02T04:16:47.568Z,15.3
2023-01-02T04:22:55.680Z,15.3
2023-01-02T04:28:49.754Z,15.3
2023-01-02T04:34:49.062Z,15.2
2023-01-02T04:41:04.703Z,15.3
2023-01-02T04:46:48.784Z,15.2
2023-01-02T04:52:58.428Z,15.2
2023-01-02T04:58:54.105Z,15.2
2023-01-02T05:04:50.137Z,15.2
2023-01-02T05:10:56.200Z,15.2
2023-01-02T05:16:59.085Z,15.2
2023-01-02T05:22:49.046Z,15.2
2023-01-02T05:28:49.513Z,15.2
2023-01-02T05:34:48.767Z,15.2
2023-01-02T05:40:47.861Z,15.2
2023-01-02T05:46:55.171Z,15.2
2023-01-02T05:53:00.673Z,15.2
2023-01-02T05:58:47.743Z,15.3
2023-01-02T06:04:50.424Z,15.3
2023-01-02T06:10:52.057Z,15.2
2023-01-02T06:16:47.790Z,15.2
2023-01-02T06:22:52.427Z,15.3
2023-01-02T06:28:47.864Z,15.3
2023-01-02T06:34:48.712Z,15.3
2023-01-02T06:40:53.001Z,15.3
2023-01-02T06:46:49.304Z,15.3
2023-01-02T06:52:50.182Z,15.3
2023-01-02T06:58:47.799Z,15.3
2023-01-02T07:04:50.697Z,15.3
2023-01-02T07:10:57.449Z,15.3
2023-01-02T07:16:59.281Z,15.2
2023-01-02T07:22:52.818Z,15.2
2023-01-02T07:28:50.884Z,15.3
2023-01-02T07:34:51.557Z,15.2
2023-01-02T07:40:54.270Z,15.2
2023-01-02T07:46:51.789Z,15.1
2023-01-02T07:52:49.387Z,15.1
2023-01-02T07:58:48.321Z,15.1
2023-01-02T08:04:47.673Z,15.1
2023-01-02T08:10:47.859Z,15.1
2023-01-02T08:16:48.255Z,15.1
2023-01-02T08:22:47.972Z,15.1
2023-01-02T08:28:48.150Z,15.1
2023-01-02T08:34:48.095Z,15
2023-01-02T08:40:48.166Z,15.1
2023-01-02T08:46:47.838Z,15.1
2023-01-02T08:52:47.914Z,15
2023-01-02T08:58:52.412Z,15.1
2023-01-02T09:04:47.736Z,15
2023-01-02T09:10:48.067Z,14.8
2023-01-02T09:16:47.841Z,14.8
2023-01-02T09:22:48.140Z,14.6
2023-01-02T09:28:48.182Z,14.5
2023-01-02T09:34:47.888Z,14.3
2023-01-02T09:40:47.953Z,14.2
2023-01-02T09:46:47.826Z,14.1
2023-01-02T09:52:47.671Z,13.7
2023-01-02T09:58:47.792Z,13.6
2023-01-02T10:04:47.762Z,13.5
2023-01-02T10:10:47.476Z,13.5
2023-01-02T10:16:47.566Z,13.5
2023-01-02T10:22:47.728Z,13.5
2023-01-02T10:28:47.746Z,13.4
2023-01-02T10:34:47.672Z,13.4
2023-01-02T10:40:47.702Z,13.4
2023-01-02T10:46:47.862Z,13.5
2023-01-02T10:52:47.775Z,13.5
2023-01-02T10:58:47.836Z,13.4
2023-01-02T11:04:48.341Z,13.3
2023-01-02T11:10:49.024Z,13.3
2023-01-02T11:16:47.755Z,13.3
2023-01-02T11:22:47.774Z,13.4
2023-01-02T11:28:48.762Z,13.4
2023-01-02T11:34:47.809Z,13.6
2023-01-02T11:40:47.608Z,13.5
2023-01-02T11:46:47.660Z,13.5
2023-01-02T11:52:47.792Z,13.7
2023-01-02T11:58:47.903Z,13.8
2023-01-02T12:04:47.763Z,13.7
2023-01-02T12:10:47.743Z,13.7
2023-01-02T12:16:47.658Z,13.7
2023-01-02T12:22:47.647Z,13.7
2023-01-02T12:28:47.662Z,13.5
2023-01-02T12:34:47.583Z,13.5
2023-01-02T12:40:47.576Z,13.5
2023-01-02T12:46:47.552Z,13.2
2023-01-02T12:52:47.583Z,13.2
2023-01-02T12:58:47.769Z,12.9
2023-01-02T13:04:47.549Z,12.6
2023-01-02T13:10:47.716Z,12.6
2023-01-02T13:16:47.733Z,12.5
2023-01-02T13:22:53.364Z,12.5
2023-01-02T13:28:47.878Z,12.4
2023-01-02T13:34:48.036Z,12.4
2023-01-02T13:40:48.240Z,12.4
2023-01-02T13:47:04.096Z,12.4
2023-01-02T13:52:47.860Z,12.5
2023-01-02T13:58:47.629Z,12.5
2023-01-02T14:04:47.547Z,12.4
2023-01-02T14:10:47.541Z,12.4
2023-01-02T14:16:47.900Z,12.3
2023-01-02T14:22:47.629Z,12.3
2023-01-02T14:28:48.244Z,12.5
2023-01-02T14:34:47.956Z,12.4
2023-01-02T14:40:48.161Z,12.4
2023-01-02T14:46:47.740Z,12.4
2023-01-02T14:52:47.835Z,12.4
2023-01-02T14:58:48.129Z,12.5
2023-01-02T15:04:48.397Z,12.3
2023-01-02T15:10:48.369Z,12.4
2023-01-02T15:16:47.810Z,12.4
2023-01-02T15:22:47.832Z,12.4
2023-01-02T15:28:48.516Z,12.3
2023-01-02T15:34:48.328Z,12.3
2023-01-02T15:40:48.439Z,12.2
2023-01-02T15:46:48.291Z,12.1
2023-01-02T15:52:47.865Z,12.1
2023-01-02T15:58:48.003Z,12.2
2023-01-02T16:04:48.471Z,12.2
2023-01-02T16:10:51.309Z,12
2023-01-02T16:16:48.153Z,11.9
2023-01-02T16:22:48.710Z,11.9
2023-01-02T16:28:48.284Z,11.8
2023-01-02T16:34:47.901Z,11.9
2023-01-02T16:41:00.991Z,11.9
2023-01-02T16:46:47.910Z,11.9
2023-01-02T16:52:47.961Z,11.9
2023-01-02T16:58:47.864Z,11.9
2023-01-02T17:04:48.367Z,11.9
2023-01-02T17:10:48.187Z,11.8
2023-01-02T17:16:47.966Z,11.8
2023-01-02T17:22:48.307Z,11.8
2023-01-02T17:28:48.342Z,11.8
2023-01-02T17:34:47.876Z,11.9
2023-01-02T17:40:48.153Z,11.9
2023-01-02T17:52:48.687Z,11.9
2023-01-02T17:58:48.412Z,11.9
2023-01-02T18:04:54.811Z,11.9
2023-01-02T18:10:47.967Z,11.6
2023-01-02T18:16:47.965Z,11.7
2023-01-02T18:22:50.863Z,11.5
2023-01-02T18:28:48.216Z,11.4
2023-01-02T18:34:50.209Z,11.5
2023-01-02T18:40:48.010Z,11.4
2023-01-02T18:47:03.271Z,11.4
2023-01-02T18:52:48.147Z,11.3
2023-01-02T18:58:49.599Z,11.3
2023-01-02T19:04:48.385Z,11.3
2023-01-02T19:10:48.419Z,11.4
2023-01-02T19:16:47.794Z,11.4
2023-01-02T19:22:48.379Z,11.4
2023-01-02T19:28:48.859Z,11.4
2023-01-02T19:34:47.782Z,11.3
2023-01-02T19:40:48.002Z,11.4
2023-01-02T19:46:47.894Z,11.2
2023-01-02T19:52:48.040Z,11.1
2023-01-02T19:58:48.399Z,11.2
2023-01-02T20:04:48.521Z,11.3
2023-01-02T20:10:48.495Z,11.3
2023-01-02T20:16:48.030Z,11.3
2023-01-02T20:22:47.982Z,11.4
2023-01-02T20:28:48.178Z,11.4
2023-01-02T20:34:48.010Z,11.3
2023-01-02T20:40:48.020Z,11.3
2023-01-02T20:46:48.122Z,11.2
2023-01-02T20:52:52.124Z,11.2
2023-01-02T20:58:48.909Z,11.2
2023-01-02T21:04:48.019Z,11.2
2023-01-02T21:10:48.304Z,11.2
2023-01-02T21:16:48.480Z,11.2
2023-01-02T21:22:48.705Z,11.2
2023-01-02T21:28:48.382Z,11.1
2023-01-02T21:34:48.250Z,11
2023-01-02T21:40:48.207Z,10.8
2023-01-02T21:46:48.141Z,10.6
2023-01-02T21:52:47.979Z,10.7
2023-01-02T21:58:49.400Z,10.7
2023-01-02T22:04:48.251Z,10.8
2023-01-02T22:10:48.049Z,10.8
2023-01-02T22:16:48.410Z,10.9
2023-01-02T22:22:48.076Z,10.8
2023-01-02T22:28:48.633Z,10.8
2023-01-02T22:34:48.396Z,10.7
2023-01-02T22:40:50.411Z,10.5
2023-01-02T22:46:49.373Z,10.5
2023-01-02T22:52:48.013Z,10.5
2023-01-02T22:58:48.265Z,10.5
2023-01-02T23:04:48.011Z,10.5
2023-01-02T23:10:48.356Z,10.4
2023-01-02T23:16:48.674Z,10.5
2023-01-02T23:22:49.069Z,10.5
2023-01-02T23:29:06.475Z,10.5
2023-01-02T23:34:49.085Z,10.5
2023-01-02T23:40:48.037Z,10.6
2023-01-02T23:46:49.890Z,10.6
2023-01-02T23:52:47.952Z,10.6
2023-01-02T23:58:48.181Z,10.6
